createdAt,value
2018-01-21T00:00:16.451Z,8.73
2018-01-21T00:00:56.891Z,8.63
2018-01-21T00:01:37.465Z,8.5
2018-01-21T00:02:18.105Z,8.5
2018-01-21T00:02:58.593Z,8.59
2018-01-21T00:03:39.164Z,8.65
2018-01-21T00:04:19.746Z,8.62
2018-01-21T00:05:00.255Z,8.63
2018-01-21T00:05:40.756Z,8.58
2018-01-21T00:06:21.365Z,8.68
2018-01-21T00:07:01.964Z,8.56
2018-01-21T00:07:42.656Z,8.62
2018-01-21T00:08:23.374Z,8.48
2018-01-21T00:09:03.878Z,8.61
2018-01-21T00:09:44.416Z,8.48
2018-01-21T00:10:24.935Z,8.55
2018-01-21T00:11:05.464Z,8.58
2018-01-21T00:11:46.044Z,8.37
2018-01-21T00:12:26.608Z,8.29
2018-01-21T00:13:07.133Z,8.34
2018-01-21T00:13:47.654Z,8.4
2018-01-21T00:14:28.224Z,8.47
2018-01-21T00:15:08.808Z,8.41
2018-01-21T00:15:49.347Z,8.4
2018-01-21T00:16:29.996Z,8.34
2018-01-21T00:17:10.486Z,8.37
2018-01-21T00:17:51.098Z,8.55
2018-01-21T00:18:31.591Z,8.56
2018-01-21T00:19:12.227Z,8.7
2018-01-21T00:19:52.738Z,8.43
2018-01-21T00:20:33.264Z,8.48
2018-01-21T00:21:13.925Z,8.37
2018-01-21T00:21:54.414Z,8.29
2018-01-21T00:22:34.964Z,8.33
2018-01-21T00:23:15.485Z,8.47
2018-01-21T00:23:55.993Z,8.52
2018-01-21T00:24:36.608Z,8.58
2018-01-21T00:25:17.123Z,8.65
2018-01-21T00:25:57.669Z,8.66
2018-01-21T00:26:38.438Z,8.56
2018-01-21T00:27:19.051Z,8.66
2018-01-21T00:27:59.525Z,8.74
2018-01-21T00:28:40.075Z,8.84
2018-01-21T00:29:20.664Z,8.84
2018-01-21T00:30:01.161Z,8.94
2018-01-21T00:30:41.791Z,8.91
2018-01-21T00:31:22.297Z,8.81
2018-01-21T00:32:02.890Z,8.81
2018-01-21T00:32:43.517Z,8.84
2018-01-21T00:33:24.122Z,8.74
2018-01-21T00:34:04.671Z,8.79
2018-01-21T00:34:45.229Z,8.8
2018-01-21T00:35:25.825Z,8.81
2018-01-21T00:36:06.300Z,8.79
2018-01-21T00:36:46.952Z,8.83
2018-01-21T00:37:27.388Z,8.83
2018-01-21T00:38:07.950Z,8.83
2018-01-21T00:38:48.558Z,8.99
2018-01-21T00:39:29.109Z,8.83
2018-01-21T00:40:09.628Z,8.81
2018-01-21T00:40:50.214Z,8.84
2018-01-21T00:41:30.733Z,8.84
2018-01-21T00:42:11.296Z,8.76
2018-01-21T00:42:51.887Z,8.7
2018-01-21T00:43:32.403Z,8.77
2018-01-21T00:44:13.002Z,8.77
2018-01-21T00:44:53.545Z,8.8
2018-01-21T00:45:34.077Z,8.83
2018-01-21T00:46:14.583Z,8.7
2018-01-21T00:46:55.113Z,8.66
2018-01-21T00:47:35.640Z,8.58
2018-01-21T00:48:16.220Z,8.48
2018-01-21T00:48:56.751Z,8.5
2018-01-21T00:49:37.278Z,8.48
2018-01-21T00:50:17.946Z,8.47
2018-01-21T00:50:58.479Z,8.52
2018-01-21T00:52:39.111Z,8.61
2018-01-21T00:53:19.658Z,8.58
2018-01-21T00:54:00.190Z,8.62
2018-01-21T00:54:40.780Z,8.66
2018-01-21T00:55:21.288Z,8.62
2018-01-21T00:56:01.842Z,8.61
2018-01-21T00:56:42.363Z,8.52
2018-01-21T00:57:22.946Z,8.48
2018-01-21T00:58:03.480Z,8.5
2018-01-21T00:58:44.014Z,8.48
2018-01-21T00:59:24.577Z,8.65
2018-01-21T01:00:05.091Z,8.65
2018-01-21T01:00:45.669Z,8.68
2018-01-21T01:01:26.199Z,8.66
2018-01-21T01:02:06.710Z,8.76
2018-01-21T01:02:47.225Z,8.63
2018-01-21T01:03:27.777Z,8.61
2018-01-21T01:04:08.336Z,8.45
2018-01-21T01:04:48.881Z,8.62
2018-01-21T01:05:29.462Z,8.58
2018-01-21T01:06:10.071Z,8.45
2018-01-21T01:06:50.598Z,8.47
2018-01-21T01:07:31.097Z,8.3
2018-01-21T01:08:11.632Z,8.44
2018-01-21T01:08:52.129Z,8.65
2018-01-21T01:09:32.670Z,8.59
2018-01-21T01:10:13.194Z,8.55
2018-01-21T01:10:53.746Z,8.58
2018-01-21T01:11:34.281Z,8.5
2018-01-21T01:12:14.796Z,8.5
2018-01-21T01:12:55.374Z,8.58
2018-01-21T01:13:35.920Z,8.63
2018-01-21T01:14:16.409Z,8.62
2018-01-21T01:14:56.915Z,8.55
2018-01-21T01:15:37.485Z,8.47
2018-01-21T01:16:18.066Z,8.59
2018-01-21T01:16:58.617Z,8.52
2018-01-21T01:17:39.163Z,8.56
2018-01-21T01:18:19.694Z,8.56
2018-01-21T01:19:00.241Z,8.71
2018-01-21T01:19:40.843Z,8.65
2018-01-21T01:20:21.332Z,8.58
2018-01-21T01:21:01.851Z,8.71
2018-01-21T01:21:44.375Z,8.76
2018-01-21T01:22:24.871Z,8.81
2018-01-21T01:23:05.419Z,8.83
2018-01-21T01:23:45.986Z,8.83
2018-01-21T01:24:26.494Z,8.81
2018-01-21T01:25:06.991Z,8.73
2018-01-21T01:25:47.573Z,8.84
2018-01-21T01:26:28.090Z,8.63
2018-01-21T01:27:08.647Z,8.63
2018-01-21T01:27:49.209Z,8.77
2018-01-21T01:28:29.716Z,8.81
2018-01-21T01:29:10.319Z,8.86
2018-01-21T01:29:50.847Z,8.86
2018-01-21T01:30:31.374Z,8.89
2018-01-21T01:31:11.969Z,8.89
2018-01-21T01:31:52.496Z,8.83
2018-01-21T01:32:33.052Z,8.83
2018-01-21T01:33:13.651Z,8.76
2018-01-21T01:33:54.219Z,8.65
2018-01-21T01:34:34.771Z,8.66
2018-01-21T01:35:15.304Z,8.47
2018-01-21T01:35:55.862Z,8.52
2018-01-21T01:36:36.370Z,8.45
2018-01-21T01:37:16.946Z,8.38
2018-01-21T01:37:57.455Z,8.45
2018-01-21T01:38:37.981Z,8.33
2018-01-21T01:39:18.493Z,8.38
2018-01-21T01:39:59.017Z,8.36
2018-01-21T01:40:39.740Z,8.45
2018-01-21T01:41:20.124Z,8.4
2018-01-21T01:42:00.675Z,8.45
2018-01-21T01:42:41.208Z,8.58
2018-01-21T01:43:21.798Z,8.62
2018-01-21T01:44:02.321Z,8.71
2018-01-21T01:44:42.860Z,8.65
2018-01-21T01:45:23.354Z,8.45
2018-01-21T01:46:03.916Z,8.43
2018-01-21T01:46:44.429Z,8.4
2018-01-21T01:47:25.032Z,8.41
2018-01-21T01:48:05.507Z,8.53
2018-01-21T01:48:46.045Z,8.55
2018-01-21T01:49:26.611Z,8.5
2018-01-21T01:50:07.151Z,8.61
2018-01-21T01:50:47.654Z,8.56
2018-01-21T01:51:28.186Z,8.53
2018-01-21T01:52:08.706Z,8.38
2018-01-21T01:52:49.301Z,8.47
2018-01-21T01:53:29.789Z,8.52
2018-01-21T01:54:10.316Z,8.28
2018-01-21T01:54:50.906Z,8.38
2018-01-21T01:55:31.400Z,8.28
2018-01-21T01:56:12.007Z,8.37
2018-01-21T01:56:52.537Z,8.37
2018-01-21T01:57:33.066Z,8.41
2018-01-21T01:58:13.640Z,8.4
2018-01-21T01:58:54.175Z,8.37
2018-01-21T01:59:34.675Z,8.52
2018-01-21T02:00:15.234Z,8.47
2018-01-21T02:00:55.741Z,8.44
2018-01-21T02:01:36.264Z,8.61
2018-01-21T02:02:16.847Z,8.65
2018-01-21T02:02:57.421Z,8.65
2018-01-21T02:03:38.590Z,8.76
2018-01-21T02:04:18.998Z,8.59
2018-01-21T02:04:59.512Z,8.66
2018-01-21T02:05:40.040Z,8.81
2018-01-21T02:06:20.560Z,8.81
2018-01-21T02:07:01.154Z,8.73
2018-01-21T02:07:41.676Z,8.74
2018-01-21T02:08:22.244Z,8.81
2018-01-21T02:09:02.739Z,8.77
2018-01-21T02:09:43.255Z,8.76
2018-01-21T02:10:23.769Z,8.73
2018-01-21T02:11:04.376Z,8.84
2018-01-21T02:11:44.922Z,8.87
2018-01-21T02:12:25.460Z,8.84
2018-01-21T02:13:05.979Z,8.68
2018-01-21T02:13:46.499Z,8.71
2018-01-21T02:14:27.042Z,8.71
2018-01-21T02:15:07.612Z,8.7
2018-01-21T02:15:48.165Z,8.63
2018-01-21T02:16:28.723Z,8.79
2018-01-21T02:17:09.260Z,8.71
2018-01-21T02:17:49.852Z,8.7
2018-01-21T02:18:30.421Z,8.79
2018-01-21T02:19:10.985Z,8.74
2018-01-21T02:19:51.535Z,8.74
2018-01-21T02:20:32.028Z,8.71
2018-01-21T02:21:12.557Z,8.73
2018-01-21T02:21:53.142Z,8.7
2018-01-21T02:22:33.634Z,8.7
2018-01-21T02:23:14.175Z,8.81
2018-01-21T02:23:54.706Z,8.86
2018-01-21T02:24:35.301Z,8.83
2018-01-21T02:25:15.834Z,8.84
2018-01-21T02:25:56.390Z,8.86
2018-01-21T02:26:37.092Z,8.84
2018-01-21T02:27:17.607Z,8.86
2018-01-21T02:27:58.151Z,8.81
2018-01-21T02:28:38.670Z,8.89
2018-01-21T02:29:19.197Z,8.83
2018-01-21T02:29:59.764Z,8.86
2018-01-21T02:30:40.265Z,8.66
2018-01-21T02:31:20.812Z,8.58
2018-01-21T02:32:01.315Z,8.65
2018-01-21T02:32:41.851Z,8.62
2018-01-21T02:33:22.402Z,8.65
2018-01-21T02:34:02.975Z,8.65
2018-01-21T02:34:43.501Z,8.53
2018-01-21T02:35:24.136Z,8.44
2018-01-21T02:36:04.646Z,8.41
2018-01-21T02:36:45.223Z,8.44
2018-01-21T02:37:25.744Z,8.58
2018-01-21T02:38:06.246Z,8.65
2018-01-21T02:38:46.769Z,8.66
2018-01-21T02:39:27.354Z,8.7
2018-01-21T02:40:07.871Z,8.66
2018-01-21T02:40:48.403Z,8.76
2018-01-21T02:41:28.911Z,8.76
2018-01-21T02:42:09.437Z,8.79
2018-01-21T02:42:50.019Z,8.77
2018-01-21T02:43:30.590Z,8.58
2018-01-21T02:44:11.093Z,8.48
2018-01-21T02:44:51.609Z,8.41
2018-01-21T02:45:32.109Z,8.44
2018-01-21T02:46:12.642Z,8.43
2018-01-21T02:46:53.205Z,8.58
2018-01-21T02:47:33.714Z,8.65
2018-01-21T02:48:14.239Z,8.63
2018-01-21T02:48:54.815Z,8.7
2018-01-21T02:49:35.362Z,8.63
2018-01-21T02:50:15.847Z,8.68
2018-01-21T02:50:56.406Z,8.53
2018-01-21T02:51:36.890Z,8.63
2018-01-21T02:52:17.418Z,8.63
2018-01-21T02:52:57.972Z,8.52
2018-01-21T02:53:38.498Z,8.55
2018-01-21T02:54:19.132Z,8.62
2018-01-21T02:54:59.727Z,8.62
2018-01-21T02:55:40.264Z,8.59
2018-01-21T02:56:20.778Z,8.61
2018-01-21T02:57:01.275Z,8.59
2018-01-21T02:57:41.829Z,8.65
2018-01-21T02:58:22.347Z,8.63
2018-01-21T02:59:02.845Z,8.56
2018-01-21T02:59:43.359Z,8.63
2018-01-21T03:00:23.957Z,8.58
2018-01-21T03:01:04.438Z,8.52
2018-01-21T03:01:44.930Z,8.45
2018-01-21T03:02:25.468Z,8.47
2018-01-21T03:03:06.019Z,8.47
2018-01-21T03:03:46.554Z,8.41
2018-01-21T03:04:27.104Z,8.48
2018-01-21T03:05:07.647Z,8.59
2018-01-21T03:05:48.192Z,8.61
2018-01-21T03:06:28.726Z,8.68
2018-01-21T03:07:09.199Z,8.56
2018-01-21T03:07:49.732Z,8.58
2018-01-21T03:08:30.293Z,8.45
2018-01-21T03:09:10.804Z,8.53
2018-01-21T03:09:51.377Z,8.7
2018-01-21T03:10:31.885Z,8.65
2018-01-21T03:11:12.387Z,8.63
2018-01-21T03:11:52.899Z,8.76
2018-01-21T03:12:33.459Z,8.84
2018-01-21T03:13:13.996Z,8.76
2018-01-21T03:13:54.497Z,8.79
2018-01-21T03:14:35.193Z,8.65
2018-01-21T03:15:15.732Z,8.74
2018-01-21T03:15:56.261Z,8.74
2018-01-21T03:16:36.809Z,8.65
2018-01-21T03:17:17.326Z,8.58
2018-01-21T03:17:57.838Z,8.71
2018-01-21T03:18:38.412Z,8.74
2018-01-21T03:19:18.931Z,8.83
2018-01-21T03:19:59.465Z,8.83
2018-01-21T03:20:40.060Z,8.83
2018-01-21T03:21:20.512Z,8.81
2018-01-21T03:22:01.104Z,8.76
2018-01-21T03:22:41.609Z,8.66
2018-01-21T03:23:22.169Z,8.66
2018-01-21T03:24:02.716Z,8.66
2018-01-21T03:24:43.197Z,8.61
2018-01-21T03:25:23.790Z,8.58
2018-01-21T03:26:04.280Z,8.47
2018-01-21T03:26:44.863Z,8.47
2018-01-21T03:27:25.411Z,8.44
2018-01-21T03:28:05.929Z,8.34
2018-01-21T03:28:46.538Z,8.29
2018-01-21T03:29:27.112Z,8.36
2018-01-21T03:30:07.645Z,8.4
2018-01-21T03:30:48.202Z,8.33
2018-01-21T03:31:28.747Z,8.4
2018-01-21T03:32:09.251Z,8.4
2018-01-21T03:32:49.815Z,8.53
2018-01-21T03:33:30.351Z,8.47
2018-01-21T03:34:10.876Z,8.5
2018-01-21T03:34:51.441Z,8.63
2018-01-21T03:35:31.979Z,8.53
2018-01-21T03:36:12.490Z,8.58
2018-01-21T03:36:53.062Z,8.59
2018-01-21T03:37:33.605Z,8.5
2018-01-21T03:38:14.122Z,8.61
2018-01-21T03:38:54.693Z,8.66
2018-01-21T03:39:35.219Z,8.63
2018-01-21T03:40:15.776Z,8.5
2018-01-21T03:40:56.282Z,8.3
2018-01-21T03:41:36.827Z,8.36
2018-01-21T03:42:17.340Z,8.41
2018-01-21T03:42:57.890Z,8.4
2018-01-21T03:43:38.429Z,8.47
2018-01-21T03:44:18.975Z,8.53
2018-01-21T03:44:59.549Z,8.58
2018-01-21T03:45:40.092Z,8.56
2018-01-21T03:46:20.606Z,8.65
2018-01-21T03:47:01.121Z,8.66
2018-01-21T03:47:41.724Z,8.58
2018-01-21T03:48:22.260Z,8.45
2018-01-21T03:49:02.749Z,8.56
2018-01-21T03:49:43.268Z,8.5
2018-01-21T03:50:23.793Z,8.58
2018-01-21T03:51:04.345Z,8.63
2018-01-21T03:51:44.903Z,8.66
2018-01-21T03:52:25.460Z,8.68
2018-01-21T03:53:06.021Z,8.52
2018-01-21T03:53:46.630Z,8.45
2018-01-21T03:54:27.166Z,8.53
2018-01-21T03:55:07.663Z,8.43
2018-01-21T03:55:48.199Z,8.48
2018-01-21T03:56:28.711Z,8.53
2018-01-21T03:57:09.219Z,8.56
2018-01-21T03:57:49.778Z,8.41
2018-01-21T03:58:30.344Z,8.41
2018-01-21T03:59:10.896Z,8.44
2018-01-21T03:59:51.436Z,8.34
2018-01-21T04:00:31.988Z,8.44
2018-01-21T04:01:12.508Z,8.56
2018-01-21T04:01:53.054Z,8.58
2018-01-21T04:02:33.579Z,8.71
2018-01-21T04:03:14.138Z,8.65
2018-01-21T04:03:54.692Z,8.73
2018-01-21T04:04:35.199Z,8.77
2018-01-21T04:05:15.718Z,8.77
2018-01-21T04:05:56.218Z,8.73
2018-01-21T04:06:36.759Z,8.83
2018-01-21T04:07:17.273Z,8.76
2018-01-21T04:07:57.858Z,8.74
2018-01-21T04:08:38.360Z,8.84
2018-01-21T04:09:18.856Z,8.76
2018-01-21T04:09:59.340Z,8.71
2018-01-21T04:10:39.863Z,8.76
2018-01-21T04:11:20.413Z,8.7
2018-01-21T04:12:00.967Z,8.62
2018-01-21T04:12:41.496Z,8.45
2018-01-21T04:13:21.993Z,8.58
2018-01-21T04:14:02.507Z,8.53
2018-01-21T04:14:43.044Z,8.48
2018-01-21T04:15:23.572Z,8.58
2018-01-21T04:16:04.073Z,8.53
2018-01-21T04:16:45.518Z,8.61
2018-01-21T04:17:26.074Z,8.73
2018-01-21T04:18:06.598Z,8.53
2018-01-21T04:18:47.128Z,8.53
2018-01-21T04:19:27.663Z,8.61
2018-01-21T04:20:08.212Z,8.7
2018-01-21T04:20:48.766Z,8.66
2018-01-21T04:21:29.251Z,8.56
2018-01-21T04:22:09.831Z,8.48
2018-01-21T04:22:50.370Z,8.5
2018-01-21T04:23:30.900Z,8.56
2018-01-21T04:24:11.423Z,8.7
2018-01-21T04:24:51.963Z,8.74
2018-01-21T04:25:32.536Z,8.63
2018-01-21T04:26:13.108Z,8.56
2018-01-21T04:26:53.612Z,8.62
2018-01-21T04:27:34.173Z,8.52
2018-01-21T04:28:14.702Z,8.61
2018-01-21T04:28:55.288Z,8.65
2018-01-21T04:29:35.815Z,8.62
2018-01-21T04:30:16.341Z,8.53
2018-01-21T04:30:56.868Z,8.63
2018-01-21T04:31:37.453Z,8.65
2018-01-21T04:32:18.015Z,8.68
2018-01-21T04:32:58.553Z,8.56
2018-01-21T04:33:39.134Z,8.56
2018-01-21T04:34:20.128Z,8.55
2018-01-21T04:35:00.176Z,8.56
2018-01-21T04:35:40.743Z,8.66
2018-01-21T04:36:21.266Z,8.76
2018-01-21T04:37:01.834Z,8.55
2018-01-21T04:37:42.334Z,8.53
2018-01-21T04:38:22.889Z,8.65
2018-01-21T04:39:03.427Z,8.65
2018-01-21T04:39:43.953Z,8.66
2018-01-21T04:40:24.487Z,8.8
2018-01-21T04:41:05.020Z,8.8
2018-01-21T04:41:45.687Z,8.62
2018-01-21T04:42:26.227Z,8.77
2018-01-21T04:43:06.791Z,8.53
2018-01-21T04:43:47.280Z,8.58
2018-01-21T04:44:27.835Z,8.63
2018-01-21T04:45:08.408Z,8.62
2018-01-21T04:45:48.951Z,8.74
2018-01-21T04:46:29.465Z,8.8
2018-01-21T04:47:10.055Z,8.73
2018-01-21T04:47:50.532Z,8.65
2018-01-21T04:48:31.052Z,8.58
2018-01-21T04:49:11.582Z,8.58
2018-01-21T04:49:52.108Z,8.62
2018-01-21T04:50:32.657Z,8.5
2018-01-21T04:51:13.212Z,8.44
2018-01-21T04:51:53.777Z,8.48
2018-01-21T04:52:34.318Z,8.45
2018-01-21T04:53:14.823Z,8.45
2018-01-21T04:53:55.363Z,8.56
2018-01-21T04:54:35.897Z,8.58
2018-01-21T04:55:16.475Z,8.63
2018-01-21T04:55:57.001Z,8.53
2018-01-21T04:56:37.555Z,8.61
2018-01-21T04:57:18.147Z,8.74
2018-01-21T04:57:58.667Z,8.55
2018-01-21T04:58:39.138Z,8.52
2018-01-21T04:59:20.623Z,8.53
2018-01-21T05:00:00.203Z,8.68
2018-01-21T05:00:40.746Z,8.48
2018-01-21T05:01:21.299Z,8.41
2018-01-21T05:02:01.834Z,8.41
2018-01-21T05:02:42.341Z,8.36
2018-01-21T05:03:22.881Z,8.28
2018-01-21T05:04:03.445Z,8.33
2018-01-21T05:04:43.947Z,8.37
2018-01-21T05:05:24.521Z,8.48
2018-01-21T05:06:05.041Z,8.61
2018-01-21T05:06:45.569Z,8.48
2018-01-21T05:07:26.145Z,8.48
2018-01-21T05:08:06.662Z,8.61
2018-01-21T05:08:47.159Z,8.41
2018-01-21T05:09:27.704Z,8.4
2018-01-21T05:10:08.253Z,8.43
2018-01-21T05:10:48.826Z,8.36
2018-01-21T05:11:29.348Z,8.43
2018-01-21T05:12:09.873Z,8.47
2018-01-21T05:12:50.419Z,8.43
2018-01-21T05:13:30.950Z,8.25
2018-01-21T05:14:11.479Z,8.26
2018-01-21T05:14:52.048Z,8.07
2018-01-21T05:15:32.594Z,7.93
2018-01-21T05:16:13.114Z,8
2018-01-21T05:16:53.658Z,8.12
2018-01-21T05:17:34.233Z,8.12
2018-01-21T05:18:14.745Z,8.1
2018-01-21T05:18:55.370Z,8.11
2018-01-21T05:19:35.891Z,8.19
2018-01-21T05:20:16.449Z,8.08
2018-01-21T05:20:57.204Z,8.02
2018-01-21T05:21:37.733Z,8.07
2018-01-21T05:22:18.293Z,8.25
2018-01-21T05:22:58.838Z,8.07
2018-01-21T05:23:39.367Z,7.93
2018-01-21T05:24:19.878Z,7.86
2018-01-21T05:25:00.438Z,7.82
2018-01-21T05:25:41.012Z,7.75
2018-01-21T05:26:21.530Z,7.98
2018-01-21T05:27:02.109Z,7.9
2018-01-21T05:27:42.605Z,7.98
2018-01-21T05:28:23.233Z,8.07
2018-01-21T05:29:03.724Z,7.98
2018-01-21T05:29:44.282Z,8
2018-01-21T05:30:24.800Z,8.11
2018-01-21T05:31:05.334Z,8.12
2018-01-21T05:31:45.888Z,8.12
2018-01-21T05:32:26.385Z,8.11
2018-01-21T05:33:06.959Z,8.11
2018-01-21T05:33:47.509Z,8.08
2018-01-21T05:34:28.037Z,8.19
2018-01-21T05:35:08.580Z,8.16
2018-01-21T05:35:49.139Z,8.12
2018-01-21T05:36:29.634Z,8.23
2018-01-21T05:37:10.222Z,8.18
2018-01-21T05:37:50.710Z,8.18
2018-01-21T05:38:31.235Z,8.22
2018-01-21T05:39:11.787Z,8.07
2018-01-21T05:39:52.299Z,8.15
2018-01-21T05:40:32.856Z,8.18
2018-01-21T05:41:13.408Z,8.16
2018-01-21T05:41:53.955Z,8.05
2018-01-21T05:42:34.597Z,8.11
2018-01-21T05:43:15.122Z,8.08
2018-01-21T05:43:55.692Z,8.08
2018-01-21T05:44:36.200Z,8.19
2018-01-21T05:45:16.759Z,8.07
2018-01-21T05:45:57.310Z,8.12
2018-01-21T05:46:37.853Z,8.18
2018-01-21T05:47:18.370Z,8.15
2018-01-21T05:47:58.878Z,8.11
2018-01-21T05:48:39.431Z,8.07
2018-01-21T05:49:20.010Z,8.1
2018-01-21T05:50:00.467Z,8.16
2018-01-21T05:50:41.041Z,8
2018-01-21T05:51:21.575Z,7.95
2018-01-21T05:52:02.121Z,7.9
2018-01-21T05:52:42.689Z,8.01
2018-01-21T05:53:23.186Z,8.05
2018-01-21T05:54:03.736Z,8.07
2018-01-21T05:54:44.236Z,8.02
2018-01-21T05:55:24.816Z,8.04
2018-01-21T05:56:05.501Z,8.07
2018-01-21T05:56:46.078Z,8.1
2018-01-21T05:57:26.582Z,8.07
2018-01-21T05:58:07.113Z,8.04
2018-01-21T05:58:47.623Z,8.11
2018-01-21T05:59:28.173Z,8.08
2018-01-21T06:00:08.683Z,7.95
2018-01-21T06:00:49.251Z,8.05
2018-01-21T06:01:29.774Z,8.08
2018-01-21T06:02:10.353Z,8.08
2018-01-21T06:02:50.879Z,8.05
2018-01-21T06:03:31.423Z,8.08
2018-01-21T06:04:11.968Z,8.16
2018-01-21T06:04:52.465Z,8.16
2018-01-21T06:05:33.028Z,8.15
2018-01-21T06:06:13.546Z,8.2
2018-01-21T06:06:54.072Z,8.16
2018-01-21T06:07:34.641Z,8.12
2018-01-21T06:08:15.219Z,8.07
2018-01-21T06:08:55.709Z,8.1
2018-01-21T06:09:36.209Z,8.23
2018-01-21T06:10:16.766Z,8.15
2018-01-21T06:10:57.346Z,8.23
2018-01-21T06:11:37.836Z,8.29
2018-01-21T06:12:18.365Z,8.38
2018-01-21T06:12:58.930Z,8.25
2018-01-21T06:13:39.479Z,8.2
2018-01-21T06:14:20.041Z,8.3
2018-01-21T06:15:00.580Z,8.3
2018-01-21T06:15:41.178Z,8.22
2018-01-21T06:16:21.698Z,8.22
2018-01-21T06:17:02.270Z,8.08
2018-01-21T06:17:42.797Z,8.18
2018-01-21T06:18:23.307Z,8.05
2018-01-21T06:19:03.837Z,8.05
2018-01-21T06:19:44.398Z,8.12
2018-01-21T06:20:24.886Z,8.23
2018-01-21T06:21:05.428Z,8.34
2018-01-21T06:21:45.955Z,8.33
2018-01-21T06:22:26.507Z,8.29
2018-01-21T06:23:07.027Z,8.29
2018-01-21T06:23:47.590Z,8.33
2018-01-21T06:24:28.137Z,8.37
2018-01-21T06:25:08.645Z,8.37
2018-01-21T06:25:49.205Z,8.41
2018-01-21T06:26:29.688Z,8.38
2018-01-21T06:27:10.274Z,8.44
2018-01-21T06:27:50.778Z,8.43
2018-01-21T06:28:31.321Z,8.34
2018-01-21T06:29:11.864Z,8.34
2018-01-21T06:29:52.390Z,8.29
2018-01-21T06:30:33.064Z,8.23
2018-01-21T06:31:13.560Z,8.2
2018-01-21T06:31:54.115Z,8.29
2018-01-21T06:32:34.635Z,8.15
2018-01-21T06:33:15.171Z,8.16
2018-01-21T06:33:55.712Z,8.25
2018-01-21T06:34:36.288Z,8.29
2018-01-21T06:35:16.826Z,8.25
2018-01-21T06:35:57.455Z,8.08
2018-01-21T06:36:37.931Z,8.18
2018-01-21T06:37:18.501Z,8.12
2018-01-21T06:37:59.023Z,8.08
2018-01-21T06:38:39.551Z,8.23
2018-01-21T06:39:20.077Z,8.12
2018-01-21T06:40:00.595Z,8.04
2018-01-21T06:40:41.117Z,8
2018-01-21T06:41:21.700Z,8.05
2018-01-21T06:42:02.241Z,8.07
2018-01-21T06:42:42.867Z,8.1
2018-01-21T06:43:23.354Z,8.07
2018-01-21T06:44:03.872Z,8.05
2018-01-21T06:44:44.391Z,8.04
2018-01-21T06:45:24.984Z,8.02
2018-01-21T06:46:05.497Z,8.11
2018-01-21T06:46:46.092Z,8.05
2018-01-21T06:47:26.603Z,8.11
2018-01-21T06:48:07.178Z,8.19
2018-01-21T06:48:47.693Z,8.26
2018-01-21T06:49:28.264Z,8.33
2018-01-21T06:50:08.842Z,8.23
2018-01-21T06:50:49.387Z,8.18
2018-01-21T06:51:29.951Z,8.2
2018-01-21T06:52:10.458Z,8.29
2018-01-21T06:52:51.009Z,8.11
2018-01-21T06:53:31.560Z,8.15
2018-01-21T06:54:12.101Z,8.23
2018-01-21T06:54:52.624Z,8.05
2018-01-21T06:55:33.174Z,8.1
2018-01-21T06:56:13.710Z,8.1
2018-01-21T06:56:54.219Z,7.97
2018-01-21T06:57:34.772Z,8.01
2018-01-21T06:58:15.301Z,8.1
2018-01-21T06:58:55.808Z,7.98
2018-01-21T06:59:36.358Z,8
2018-01-21T07:00:16.933Z,8.05
2018-01-21T07:00:57.486Z,8.11
2018-01-21T07:01:38.043Z,8.07
2018-01-21T07:02:18.622Z,8.08
2018-01-21T07:02:59.113Z,8.12
2018-01-21T07:03:39.651Z,8.18
2018-01-21T07:04:20.179Z,8.15
2018-01-21T07:05:00.721Z,8.18
2018-01-21T07:05:41.294Z,8.12
2018-01-21T07:06:21.865Z,8.26
2018-01-21T07:07:02.402Z,8.2
2018-01-21T07:07:42.951Z,8.07
2018-01-21T07:08:23.543Z,8.1
2018-01-21T07:09:04.064Z,8.05
2018-01-21T07:09:44.640Z,8.05
2018-01-21T07:10:25.149Z,8.01
2018-01-21T07:11:05.750Z,7.98
2018-01-21T07:11:46.314Z,8.07
2018-01-21T07:12:26.849Z,8.07
2018-01-21T07:13:07.358Z,7.97
2018-01-21T07:13:47.909Z,7.89
2018-01-21T07:14:28.438Z,7.87
2018-01-21T07:15:08.945Z,7.87
2018-01-21T07:15:49.565Z,7.85
2018-01-21T07:16:30.150Z,7.74
2018-01-21T07:17:10.683Z,7.68
2018-01-21T07:17:51.235Z,7.68
2018-01-21T07:18:33.920Z,7.57
2018-01-21T07:19:14.378Z,7.71
2018-01-21T07:19:54.938Z,7.75
2018-01-21T07:20:35.479Z,7.77
2018-01-21T07:21:19.571Z,7.83
2018-01-21T07:22:00.258Z,8.01
2018-01-21T07:22:40.867Z,7.82
2018-01-21T07:23:21.362Z,7.61
2018-01-21T07:24:01.921Z,7.69
2018-01-21T07:24:42.446Z,7.79
2018-01-21T07:25:22.972Z,7.9
2018-01-21T07:26:03.499Z,7.83
2018-01-21T07:26:44.041Z,7.74
2018-01-21T07:27:24.643Z,7.8
2018-01-21T07:28:05.162Z,7.75
2018-01-21T07:28:45.730Z,7.72
2018-01-21T07:29:26.328Z,7.75
2018-01-21T07:30:07.111Z,7.68
2018-01-21T07:30:47.760Z,7.61
2018-01-21T07:31:28.191Z,7.55
2018-01-21T07:32:08.818Z,7.57
2018-01-21T07:32:49.302Z,7.74
2018-01-21T07:33:29.853Z,7.82
2018-01-21T07:34:10.398Z,7.95
2018-01-21T07:34:51.358Z,7.97
2018-01-21T07:35:31.892Z,7.97
2018-01-21T07:36:12.446Z,7.85
2018-01-21T07:36:52.961Z,7.86
2018-01-21T07:37:33.487Z,7.93
2018-01-21T07:38:13.996Z,8.04
2018-01-21T07:38:54.513Z,7.89
2018-01-21T07:39:35.036Z,7.8
2018-01-21T07:40:15.563Z,7.67
2018-01-21T07:40:56.115Z,7.63
2018-01-21T07:41:37.725Z,7.74
2018-01-21T07:42:17.903Z,7.72
2018-01-21T07:42:58.579Z,7.6
2018-01-21T07:43:39.060Z,7.71
2018-01-21T07:44:19.593Z,7.55
2018-01-21T07:45:00.106Z,7.5
2018-01-21T07:45:40.619Z,7.63
2018-01-21T07:46:21.162Z,7.61
2018-01-21T07:47:01.746Z,7.55
2018-01-21T07:47:42.298Z,7.67
2018-01-21T07:48:22.882Z,7.53
2018-01-21T07:49:03.394Z,7.46
2018-01-21T07:49:43.916Z,7.46
2018-01-21T07:50:24.459Z,7.52
2018-01-21T07:51:05.048Z,7.5
2018-01-21T07:51:45.554Z,7.67
2018-01-21T07:52:26.062Z,7.63
2018-01-21T07:53:06.641Z,7.71
2018-01-21T07:53:47.227Z,7.75
2018-01-21T07:54:27.767Z,7.8
2018-01-21T07:55:09.911Z,7.85
2018-01-21T07:55:50.443Z,7.75
2018-01-21T07:56:30.924Z,7.71
2018-01-21T07:57:11.466Z,7.79
2018-01-21T07:57:52.012Z,7.83
2018-01-21T07:58:32.509Z,7.95
2018-01-21T07:59:13.024Z,8.1
2018-01-21T07:59:53.590Z,8.02
2018-01-21T08:00:34.145Z,8.15
2018-01-21T08:01:14.699Z,8.22
2018-01-21T08:01:55.285Z,8.25
2018-01-21T08:02:35.891Z,8.28
2018-01-21T08:03:16.416Z,8.23
2018-01-21T08:03:56.965Z,8.18
2018-01-21T08:04:37.439Z,8.19
2018-01-21T08:05:17.999Z,8.23
2018-01-21T08:05:58.585Z,8.22
2018-01-21T08:06:39.407Z,8.29
2018-01-21T08:07:19.723Z,8.4
2018-01-21T08:08:00.267Z,8.37
2018-01-21T08:08:40.820Z,8.34
2018-01-21T08:09:21.509Z,8.34
2018-01-21T08:10:01.896Z,8.38
2018-01-21T08:10:42.474Z,8.3
2018-01-21T08:11:22.953Z,8.11
2018-01-21T08:12:03.511Z,8.12
2018-01-21T08:12:44.029Z,7.89
2018-01-21T08:13:24.764Z,7.82
2018-01-21T08:14:05.456Z,7.8
2018-01-21T08:14:45.996Z,7.72
2018-01-21T08:15:26.555Z,7.5
2018-01-21T08:16:07.135Z,7.58
2018-01-21T08:16:47.691Z,7.6
2018-01-21T08:17:28.187Z,7.5
2018-01-21T08:18:08.788Z,7.64
2018-01-21T08:18:49.341Z,7.55
2018-01-21T08:19:30.042Z,7.77
2018-01-21T08:20:10.539Z,7.95
2018-01-21T08:20:51.140Z,7.9
2018-01-21T08:21:31.812Z,7.85
2018-01-21T08:22:12.390Z,7.87
2018-01-21T08:22:52.983Z,7.93
2018-01-21T08:23:33.569Z,7.9
2018-01-21T08:24:14.115Z,7.87
2018-01-21T08:24:54.611Z,7.9
2018-01-21T08:25:35.224Z,7.87
2018-01-21T08:26:15.776Z,7.85
2018-01-21T08:26:56.276Z,7.79
2018-01-21T08:27:36.988Z,7.8
2018-01-21T08:28:17.839Z,7.79
2018-01-21T08:28:58.444Z,7.67
2018-01-21T08:29:39.128Z,7.49
2018-01-21T08:30:19.609Z,7.52
2018-01-21T08:31:00.186Z,7.53
2018-01-21T08:31:40.790Z,7.55
2018-01-21T08:32:21.441Z,7.68
2018-01-21T08:33:01.911Z,7.74
2018-01-21T08:33:42.457Z,7.75
2018-01-21T08:34:22.998Z,7.74
2018-01-21T08:35:03.588Z,7.72
2018-01-21T08:35:44.090Z,7.68
2018-01-21T08:36:24.632Z,7.74
2018-01-21T08:37:05.189Z,7.63
2018-01-21T08:37:45.728Z,7.71
2018-01-21T08:38:26.244Z,7.72
2018-01-21T08:39:06.810Z,7.67
2018-01-21T08:39:47.375Z,7.72
2018-01-21T08:40:27.965Z,7.85
2018-01-21T08:41:08.470Z,7.83
2018-01-21T08:41:49.044Z,7.95
2018-01-21T08:42:29.641Z,7.79
2018-01-21T08:43:10.117Z,7.79
2018-01-21T08:43:50.695Z,7.87
2018-01-21T08:44:32.878Z,8
2018-01-21T08:45:13.395Z,7.83
2018-01-21T08:45:54.008Z,8.01
2018-01-21T08:46:34.551Z,7.92
2018-01-21T08:47:15.074Z,8.07
2018-01-21T08:47:55.705Z,8.04
2018-01-21T08:48:36.328Z,7.71
2018-01-21T08:49:16.810Z,7.68
2018-01-21T08:57:33.690Z,7.49
2018-01-21T08:58:14.266Z,7.43
2018-01-21T08:58:54.832Z,7.31
2018-01-21T08:59:35.395Z,7.4
2018-01-21T09:00:15.954Z,7.48
2018-01-21T09:00:56.464Z,7.52
2018-01-21T09:01:37.070Z,7.42
2018-01-21T09:02:17.632Z,7.42
2018-01-21T09:02:58.179Z,7.3
2018-01-21T09:03:38.749Z,7.45
2018-01-21T09:04:19.337Z,7.52
2018-01-21T09:04:59.923Z,7.53
2018-01-21T09:05:40.438Z,7.55
2018-01-21T09:06:21.001Z,7.67
2018-01-21T09:07:01.597Z,7.53
2018-01-21T09:07:42.132Z,7.58
2018-01-21T09:08:22.819Z,7.52
2018-01-21T09:09:03.413Z,7.55
2018-01-21T09:09:43.895Z,7.49
2018-01-21T09:10:24.644Z,7.48